createdAt,value
2022-09-14T00:00:42.425Z,92314.72
2022-09-14T00:03:25.423Z,92311.13
2022-09-14T00:06:09.901Z,92307.13
2022-09-14T00:08:54.185Z,92297.94
2022-09-14T00:11:38.938Z,92303.34
2022-09-14T00:14:22.033Z,92296.75
2022-09-14T00:17:04.973Z,92294.53
2022-09-14T00:19:47.961Z,92292.94
2022-09-14T00:22:31.037Z,92295.53
2022-09-14T00:25:14.009Z,92298.56
2022-09-14T00:27:58.794Z,92302.31
2022-09-14T00:30:42.505Z,92290.78
2022-09-14T00:33:25.448Z,92289.78
2022-09-14T00:36:11.334Z,92283.16
2022-09-14T00:38:56.564Z,92281.75
2022-09-14T00:41:42.161Z,92271.97
2022-09-14T00:45:02.308Z,92259.22
2022-09-14T00:47:45.659Z,92265.41
2022-09-14T00:50:28.965Z,92258.00
2022-09-14T00:53:11.965Z,92262.59
2022-09-14T00:55:55.177Z,92261.41
2022-09-14T00:58:38.186Z,92260.97
2022-09-14T01:01:22.748Z,92264.81
2022-09-14T01:04:05.975Z,92266.22
2022-09-14T01:06:57.505Z,92268.59
2022-09-14T01:09:47.639Z,92262.41
2022-09-14T01:12:40.227Z,92258.59
2022-09-14T01:15:32.727Z,92261.59
2022-09-14T01:18:22.591Z,92242.41
2022-09-14T01:21:10.156Z,92232.63
2022-09-14T01:24:02.699Z,92225.06
2022-09-14T01:27:12.865Z,92230.03
2022-09-14T01:30:07.699Z,92254.81
2022-09-14T01:32:54.787Z,92285.97
2022-09-14T01:35:43.436Z,92278.34
2022-09-14T01:38:32.446Z,92248.81
2022-09-14T01:41:18.701Z,92237.44
2022-09-14T01:44:09.483Z,92237.06
2022-09-14T01:46:55.666Z,92232.44
2022-09-14T01:49:44.526Z,92214.88
2022-09-14T01:52:32.971Z,92226.47
2022-09-14T01:55:20.076Z,92233.28
2022-09-14T01:58:09.280Z,92235.66
2022-09-14T02:00:56.824Z,92234.09
2022-09-14T02:03:46.619Z,92216.13
2022-09-14T02:06:35.559Z,92223.91
2022-09-14T02:09:26.438Z,92218.56
2022-09-14T02:12:09.946Z,92211.38
2022-09-14T02:14:55.273Z,92206.78
2022-09-14T02:17:40.054Z,92207.34
2022-09-14T02:20:24.598Z,92210.16
2022-09-14T02:23:08.007Z,92205.75
2022-09-14T02:25:51.467Z,92202.38
2022-09-14T02:28:36.707Z,92194.59
2022-09-14T02:31:29.627Z,92185.63
2022-09-14T02:34:25.315Z,92194.63
2022-09-14T02:37:12.345Z,92183.88
2022-09-14T02:40:06.886Z,92184.44
2022-09-14T02:43:00.260Z,92180.25
2022-09-14T02:45:51.807Z,92174.06
2022-09-14T02:48:42.088Z,92167.50
2022-09-14T02:51:32.903Z,92173.28
2022-09-14T02:54:18.998Z,92174.88
2022-09-14T02:57:02.708Z,92177.25
2022-09-14T02:59:45.701Z,92177.88
2022-09-14T03:02:28.763Z,92174.47
2022-09-14T03:05:11.773Z,92172.88
2022-09-14T03:07:56.190Z,92169.47
2022-09-14T03:10:39.577Z,92166.88
2022-09-14T03:13:22.654Z,92172.28
2022-09-14T03:16:07.327Z,92165.28
2022-09-14T03:18:50.386Z,92155.91
2022-09-14T03:21:34.094Z,92156.53
2022-09-14T03:24:18.385Z,92150.94
2022-09-14T03:27:01.391Z,92152.53
2022-09-14T03:29:44.342Z,92157.50
2022-09-14T03:32:27.404Z,92149.53
2022-09-14T03:35:10.574Z,92149.13
2022-09-14T03:37:53.601Z,92146.31
2022-09-14T03:40:37.988Z,92145.72
2022-09-14T03:43:21.770Z,92134.94
2022-09-14T03:46:08.928Z,92137.13
2022-09-14T03:48:52.041Z,92138.31
2022-09-14T03:51:35.497Z,92138.69
2022-09-14T03:54:18.653Z,92133.50
2022-09-14T03:57:02.964Z,92126.50
2022-09-14T03:59:45.979Z,92126.34
2022-09-14T04:02:29.781Z,92122.56
2022-09-14T04:05:12.862Z,92124.56
2022-09-14T04:07:55.837Z,92123.78
2022-09-14T04:10:40.757Z,92126.78
2022-09-14T04:13:25.287Z,92125.38
2022-09-14T04:16:08.757Z,92118.41
2022-09-14T04:18:51.859Z,92121.38
2022-09-14T04:21:34.846Z,92128.38
2022-09-14T04:24:18.286Z,92122.38
2022-09-14T04:27:01.373Z,92128.38
2022-09-14T04:29:45.784Z,92124.78
2022-09-14T04:32:33.492Z,92117.00
2022-09-14T04:35:17.438Z,92122.19
2022-09-14T04:38:00.354Z,92129.16
2022-09-14T04:40:43.319Z,92135.16
2022-09-14T04:43:27.368Z,92135.72
2022-09-14T04:46:14.701Z,92146.50
2022-09-14T04:48:58.005Z,92152.69
2022-09-14T04:51:40.911Z,92153.88
2022-09-14T04:54:23.943Z,92148.69
2022-09-14T04:57:06.982Z,92164.09
2022-09-14T04:59:49.951Z,92163.50
2022-09-14T05:02:34.195Z,92165.50
2022-09-14T05:05:17.323Z,92157.16
2022-09-14T05:08:00.278Z,92150.38
2022-09-14T05:10:43.264Z,92146.97
2022-09-14T05:13:26.964Z,92143.00
2022-09-14T05:16:11.794Z,92139.59
2022-09-14T05:18:57.001Z,92123.28
2022-09-14T05:21:39.987Z,92114.91
2022-09-14T05:24:23.150Z,92112.69
2022-09-14T05:27:06.283Z,92115.06
2022-09-14T05:29:49.191Z,92121.25
2022-09-14T05:32:32.103Z,92123.06
2022-09-14T05:35:16.442Z,92140.38
2022-09-14T05:37:59.467Z,92131.81
2022-09-14T05:40:42.743Z,92140.38
2022-09-14T05:43:26.376Z,92153.13
2022-09-14T05:46:12.547Z,92122.63
2022-09-14T05:48:55.659Z,92115.47
2022-09-14T05:51:40.011Z,92122.63
2022-09-14T05:54:23.081Z,92121.25
2022-09-14T05:57:06.085Z,92111.69
2022-09-14T05:59:49.150Z,92108.28
2022-09-14T06:02:32.195Z,92100.53
2022-09-14T06:05:15.481Z,92088.56
2022-09-14T06:07:59.922Z,92092.16
2022-09-14T06:10:42.978Z,92097.75
2022-09-14T06:13:25.897Z,92092.97
2022-09-14T06:16:11.079Z,92066.25
2022-09-14T06:18:55.823Z,92050.72
2022-09-14T06:21:38.750Z,92055.09
2022-09-14T06:24:43.062Z,92055.69
2022-09-14T06:27:37.086Z,92058.72
2022-09-14T06:30:22.271Z,92052.91
2022-09-14T06:33:06.294Z,92066.28
2022-09-14T06:35:56.792Z,92076.81
2022-09-14T06:38:40.514Z,92061.84
2022-09-14T06:41:29.187Z,92067.41
2022-09-14T06:44:12.215Z,92091.31
2022-09-14T06:46:55.197Z,92075.13
2022-09-14T06:49:38.075Z,92066.59
2022-09-14T06:52:21.160Z,92068.00
2022-09-14T06:55:04.245Z,92076.53
2022-09-14T06:57:50.215Z,92069.75
2022-09-14T07:00:33.119Z,92057.22
2022-09-14T07:03:16.136Z,92051.19
2022-09-14T07:06:04.187Z,92051.81
2022-09-14T07:08:47.107Z,92058.16
2022-09-14T07:11:30.492Z,92065.69
2022-09-14T07:14:14.791Z,92057.53
2022-09-14T07:16:57.698Z,92049.59
2022-09-14T07:19:40.608Z,92054.75
2022-09-14T07:22:23.606Z,92048.56
2022-09-14T07:25:07.742Z,92042.94
2022-09-14T07:27:50.748Z,92046.53
2022-09-14T07:30:37.928Z,92047.72
2022-09-14T07:33:20.869Z,92060.88
2022-09-14T07:36:08.159Z,92061.25
2022-09-14T07:38:52.910Z,92078.00
2022-09-14T07:41:36.880Z,92086.75
2022-09-14T07:44:19.784Z,92069.38
2022-09-14T07:47:04.300Z,92066.38
2022-09-14T07:49:47.359Z,92057.81
2022-09-14T07:52:32.793Z,92072.38
2022-09-14T07:55:19.041Z,92080.94
2022-09-14T07:58:01.947Z,92080.53
2022-09-14T08:00:45.706Z,92084.94
2022-09-14T08:03:31.563Z,92109.44
2022-09-14T08:06:16.669Z,92074.34
2022-09-14T08:08:59.854Z,92075.53
2022-09-14T08:11:42.958Z,92056.75
2022-09-14T08:14:26.244Z,92060.31
2022-09-14T08:17:10.338Z,92069.06
2022-09-14T08:19:55.682Z,92062.88
2022-09-14T08:22:39.207Z,92070.66
2022-09-14T08:25:22.273Z,92071.66
2022-09-14T08:28:05.689Z,92067.47
2022-09-14T08:30:48.752Z,92065.31
2022-09-14T08:33:32.742Z,92051.34
2022-09-14T08:36:19.580Z,92064.13
2022-09-14T08:39:02.834Z,92077.25
2022-09-14T08:41:52.750Z,92079.25
2022-09-14T08:44:40.802Z,92083.81
2022-09-14T08:47:29.083Z,92091.19
2022-09-14T08:50:17.258Z,92077.78
2022-09-14T08:53:01.691Z,92073.59
2022-09-14T08:55:49.660Z,92091.78
2022-09-14T08:58:48.102Z,92080.94
2022-09-14T09:01:43.878Z,92070.56
2022-09-14T09:04:36.241Z,92073.34
2022-09-14T09:07:27.660Z,92082.72
2022-09-14T09:10:14.553Z,92060.94
2022-09-14T09:13:00.308Z,92061.53
2022-09-14T09:15:49.150Z,92068.31
2022-09-14T09:18:39.275Z,92062.94
2022-09-14T09:21:24.912Z,92071.34
2022-09-14T09:24:27.168Z,92072.56
2022-09-14T09:27:16.017Z,92070.97
2022-09-14T09:29:58.936Z,92073.16
2022-09-14T09:32:44.962Z,92071.75
2022-09-14T09:35:51.664Z,92078.53
2022-09-14T09:38:38.190Z,92074.94
2022-09-14T09:41:23.888Z,92063.53
2022-09-14T09:44:10.553Z,92079.91
2022-09-14T09:46:56.998Z,92090.09
2022-09-14T09:49:40.650Z,92089.69
2022-09-14T09:52:23.645Z,92102.22
2022-09-14T09:55:08.166Z,92089.84
2022-09-14T09:57:51.111Z,92086.81
2022-09-14T10:00:35.706Z,92096.19
2022-09-14T10:03:31.861Z,92094.78
2022-09-14T10:06:15.432Z,92088.78
2022-09-14T10:08:59.546Z,92094.56
2022-09-14T10:11:43.160Z,92093.94
2022-09-14T10:14:31.384Z,92090.50
2022-09-14T10:17:20.386Z,92097.22
2022-09-14T10:20:04.211Z,92093.78
2022-09-14T10:22:47.293Z,92097.69
2022-09-14T10:25:30.345Z,92101.84
2022-09-14T10:28:22.964Z,92094.03
2022-09-14T10:31:14.175Z,92090.00
2022-09-14T10:33:59.369Z,92080.16
2022-09-14T10:36:50.232Z,92083.28
2022-09-14T10:39:40.383Z,92080.97
2022-09-14T10:42:34.368Z,92079.13
2022-09-14T10:45:28.398Z,92088.44
2022-09-14T10:48:23.347Z,92069.56
2022-09-14T10:51:20.732Z,92072.69
2022-09-14T10:54:17.382Z,92060.59
2022-09-14T10:57:10.504Z,92054.97
2022-09-14T10:59:56.824Z,92052.72
2022-09-14T11:02:53.279Z,92046.28
2022-09-14T11:05:40.105Z,92038.59
2022-09-14T11:08:32.185Z,92039.56
2022-09-14T11:11:33.128Z,92035.63
2022-09-14T11:14:29.009Z,92027.28
2022-09-14T11:17:26.673Z,92025.97
2022-09-14T11:20:23.792Z,92032.09
2022-09-14T11:23:24.580Z,92029.84
2022-09-14T11:26:15.318Z,92037.22
2022-09-14T11:29:04.872Z,92040.19
2022-09-14T11:32:16.826Z,92030.34
2022-09-14T11:35:00.165Z,92024.69
2022-09-14T11:37:47.968Z,92024.44
2022-09-14T11:40:36.208Z,92017.22
2022-09-14T11:43:25.993Z,92012.78
2022-09-14T11:46:13.724Z,92010.41
2022-09-14T11:49:10.555Z,92015.19
2022-09-14T11:51:56.871Z,92009.72
2022-09-14T11:54:46.007Z,92008.28
2022-09-14T11:57:31.650Z,92001.94
2022-09-14T12:00:47.520Z,92009.41
2022-09-14T12:03:54.271Z,92007.50
2022-09-14T12:06:55.310Z,91999.91
2022-09-14T12:09:44.575Z,91997.63
2022-09-14T12:12:35.962Z,91993.00
2022-09-14T12:15:35.062Z,91998.78
2022-09-14T12:18:25.715Z,92004.19
2022-09-14T12:21:21.846Z,92001.94
2022-09-14T12:24:15.837Z,92009.31
2022-09-14T12:26:58.899Z,92011.47
2022-09-14T12:29:41.946Z,92010.22
2022-09-14T12:32:44.470Z,92009.31
2022-09-14T12:35:46.370Z,91996.16
2022-09-14T12:39:10.671Z,91995.94
2022-09-14T12:42:28.335Z,92000.84
2022-09-14T12:45:47.141Z,91999.09
2022-09-14T12:48:58.630Z,91999.50
2022-09-14T12:51:49.260Z,92002.38
2022-09-14T12:54:49.226Z,91995.41
2022-09-14T12:57:44.546Z,91989.44
2022-09-14T13:00:30.868Z,91990.72
2022-09-14T13:03:34.909Z,91997.72
2022-09-14T13:06:19.337Z,91995.25
2022-09-14T13:09:09.442Z,91997.16
2022-09-14T13:11:57.275Z,91996.13
2022-09-14T13:14:48.585Z,91995.31
2022-09-14T13:17:31.593Z,91992.09
2022-09-14T13:20:23.163Z,91988.59
2022-09-14T13:23:20.837Z,91985.63
2022-09-14T13:26:13.354Z,91988.03
2022-09-14T13:28:58.706Z,91986.75
2022-09-14T13:31:42.432Z,91993.69
2022-09-14T13:34:28.530Z,91992.22
2022-09-14T13:37:14.535Z,92003.63
2022-09-14T13:39:59.708Z,92018.41
2022-09-14T13:42:44.513Z,92013.19
2022-09-14T13:45:27.606Z,92008.97
2022-09-14T13:48:14.909Z,91997.25
2022-09-14T13:50:58.074Z,92003.25
2022-09-14T13:53:45.531Z,92001.69
2022-09-14T13:56:31.384Z,91997.00
2022-09-14T13:59:19.117Z,92001.75
2022-09-14T14:02:03.340Z,92001.50
2022-09-14T14:04:49.269Z,92005.09
2022-09-14T14:07:34.343Z,92014.00
2022-09-14T14:10:29.962Z,92024.16
2022-09-14T14:13:13.067Z,92028.59
2022-09-14T14:16:14.488Z,92025.09
2022-09-14T14:18:59.138Z,92014.91
2022-09-14T14:21:42.076Z,91984.19
2022-09-14T14:24:28.120Z,91975.78
2022-09-14T14:27:27.728Z,91963.91
2022-09-14T14:30:15.991Z,91991.09
2022-09-14T14:33:01.385Z,91997.53
2022-09-14T14:35:44.408Z,91990.84
2022-09-14T14:38:27.409Z,91988.28
2022-09-14T14:41:14.878Z,91982.31
2022-09-14T14:43:57.840Z,91983.44
2022-09-14T14:46:42.463Z,91982.47
2022-09-14T14:49:26.779Z,91978.28
2022-09-14T14:52:11.764Z,91973.81
2022-09-14T14:54:54.774Z,91966.78
2022-09-14T14:57:39.003Z,91961.28
2022-09-14T15:00:24.623Z,91965.00
2022-09-14T15:03:07.668Z,91962.13
2022-09-14T15:05:51.946Z,91966.59
2022-09-14T15:08:34.947Z,91957.38
2022-09-14T15:11:18.933Z,91953.78
2022-09-14T15:14:01.873Z,91959.63
2022-09-14T15:16:45.464Z,91961.25
2022-09-14T15:19:28.987Z,91959.44
2022-09-14T15:22:14.193Z,91942.38
2022-09-14T15:24:57.109Z,91934.53
2022-09-14T15:27:40.648Z,91928.16
2022-09-14T15:30:23.575Z,91930.41
2022-09-14T15:33:06.692Z,91924.81
2022-09-14T15:35:55.920Z,91917.91
2022-09-14T15:38:40.268Z,91916.72
2022-09-14T15:41:23.328Z,91910.03
2022-09-14T15:44:07.438Z,91897.38
2022-09-14T15:46:50.862Z,91889.59
2022-09-14T15:49:33.992Z,91888.94
2022-09-14T15:52:16.963Z,91884.44
2022-09-14T15:55:01.277Z,91885.94
2022-09-14T15:57:44.234Z,91892.38
2022-09-14T16:00:27.263Z,91892.53
2022-09-14T16:03:11.022Z,91890.09
2022-09-14T16:05:54.036Z,91895.78
2022-09-14T16:08:37.636Z,91881.38
2022-09-14T16:11:22.744Z,91882.63
2022-09-14T16:14:06.962Z,91872.91
2022-09-14T16:16:50.007Z,91872.59
2022-09-14T16:19:33.703Z,91877.81
2022-09-14T16:22:16.787Z,91878.56
2022-09-14T16:24:59.709Z,91880.09
2022-09-14T16:27:44.300Z,91873.53
2022-09-14T16:30:27.260Z,91867.22
2022-09-14T16:33:10.259Z,91856.44
2022-09-14T16:36:03.676Z,91838.78
2022-09-14T16:38:46.837Z,91854.84
2022-09-14T16:41:30.350Z,91860.44
2022-09-14T16:44:16.788Z,91854.13
2022-09-14T16:47:00.018Z,91843.75
2022-09-14T16:49:43.036Z,91831.78
2022-09-14T16:52:26.195Z,91858.59
2022-09-14T16:55:09.481Z,91854.16
2022-09-14T16:57:52.379Z,91856.78
2022-09-14T17:00:39.410Z,91848.16
2022-09-14T17:03:31.573Z,91833.19
2022-09-14T17:06:16.638Z,91837.88
2022-09-14T17:09:01.331Z,91841.25
2022-09-14T17:11:44.922Z,91841.41
2022-09-14T17:14:31.307Z,91861.97
2022-09-14T17:17:15.941Z,91849.69
2022-09-14T17:19:58.843Z,91865.59
2022-09-14T17:22:41.984Z,91877.84
2022-09-14T17:25:25.013Z,91879.94
2022-09-14T17:28:08.048Z,91897.38
2022-09-14T17:30:51.838Z,91906.03
2022-09-14T17:33:36.352Z,91910.44
2022-09-14T17:36:19.515Z,91907.72
2022-09-14T17:39:09.183Z,91907.50
2022-09-14T17:41:54.625Z,91907.94
2022-09-14T17:44:37.571Z,91940.47
2022-09-14T17:47:20.622Z,91951.84
2022-09-14T17:50:05.513Z,91937.00
2022-09-14T17:52:48.290Z,91944.25
2022-09-14T17:55:33.350Z,91927.94
2022-09-14T17:58:19.617Z,91912.28
2022-09-14T18:01:08.535Z,91934.22
2022-09-14T18:03:53.659Z,91948.69
2022-09-14T18:06:40.344Z,91942.69
2022-09-14T18:09:25.202Z,91923.44
2022-09-14T18:12:10.345Z,91922.97
2022-09-14T18:14:53.292Z,91915.59
2022-09-14T18:17:36.365Z,91927.44
2022-09-14T18:20:19.654Z,91925.19
2022-09-14T18:23:04.027Z,91919.03
2022-09-14T18:25:47.166Z,91913.81
2022-09-14T18:28:30.174Z,91927.69
2022-09-14T18:31:15.979Z,91928.09
2022-09-14T18:34:00.886Z,91933.31
2022-09-14T18:36:43.802Z,91930.94
2022-09-14T18:39:28.450Z,91924.16
2022-09-14T18:42:11.333Z,91920.53
2022-09-14T18:44:55.673Z,91923.72
2022-09-14T18:47:38.659Z,91927.69
2022-09-14T18:50:23.191Z,91924.63
2022-09-14T18:53:06.462Z,91928.41
2022-09-14T18:55:50.782Z,91934.97
2022-09-14T18:58:35.110Z,91935.31
2022-09-14T19:01:18.259Z,91945.50
2022-09-14T19:04:02.852Z,91946.53
2022-09-14T19:06:45.867Z,91951.72
2022-09-14T19:09:28.907Z,91954.75
2022-09-14T19:12:13.170Z,91959.16
2022-09-14T19:14:56.142Z,91961.75
2022-09-14T19:17:39.421Z,91955.75
2022-09-14T19:20:23.150Z,91961.97
2022-09-14T19:23:07.158Z,91965.00
2022-09-14T19:25:50.227Z,91960.81
2022-09-14T19:28:35.159Z,91963.44
2022-09-14T19:31:20.968Z,91969.28
2022-09-14T19:34:06.014Z,91977.53
2022-09-14T19:36:49.745Z,91983.38
2022-09-14T19:39:32.891Z,91988.22
2022-09-14T19:42:15.835Z,91991.25
2022-09-14T19:45:00.223Z,91987.31
2022-09-14T19:47:43.360Z,91989.09
2022-09-14T19:50:26.477Z,91989.91
2022-09-14T19:53:09.751Z,91983.88
2022-09-14T19:55:52.832Z,92000.06
2022-09-14T19:58:37.414Z,91988.88
2022-09-14T20:01:23.687Z,91991.47
2022-09-14T20:04:07.853Z,91987.06
2022-09-14T20:06:52.476Z,91988.66
2022-09-14T20:09:35.684Z,91985.06
2022-09-14T20:12:18.676Z,91984.03
2022-09-14T20:15:01.615Z,91982.44
2022-09-14T20:17:45.947Z,91981.44
2022-09-14T20:20:28.820Z,91988.22
2022-09-14T20:23:11.875Z,91997.41
2022-09-14T20:25:54.750Z,91994.22
2022-09-14T20:28:39.171Z,91998.41
2022-09-14T20:31:22.185Z,91981.78
2022-09-14T20:34:07.092Z,91987.78
2022-09-14T20:36:50.082Z,91989.81
2022-09-14T20:39:36.009Z,91995.03
2022-09-14T20:42:18.978Z,91990.25
2022-09-14T20:45:01.934Z,91979.28
2022-09-14T20:47:45.089Z,91983.88
2022-09-14T20:50:29.386Z,91984.69
2022-09-14T20:53:12.349Z,91998.47
2022-09-14T20:56:01.453Z,91989.91
2022-09-14T20:58:45.028Z,91984.69
2022-09-14T21:01:30.102Z,91987.31
2022-09-14T21:04:13.498Z,91984.91
2022-09-14T21:06:57.891Z,91976.31
2022-09-14T21:09:40.816Z,91970.75
2022-09-14T21:12:23.810Z,91989.94
2022-09-14T21:15:07.325Z,91982.38
2022-09-14T21:17:50.377Z,91976.78
2022-09-14T21:20:36.841Z,91981.41
2022-09-14T21:23:21.125Z,91970.44
2022-09-14T21:26:04.364Z,91981.06
2022-09-14T21:28:47.955Z,91979.66
2022-09-14T21:31:31.024Z,91977.88
2022-09-14T21:34:14.494Z,91972.09
2022-09-14T21:36:57.426Z,91967.91
2022-09-14T21:39:41.834Z,91960.88
2022-09-14T21:42:24.795Z,91965.31
2022-09-14T21:45:08.900Z,91974.69
2022-09-14T21:47:51.788Z,91973.09
2022-09-14T21:50:34.800Z,91972.69
2022-09-14T21:53:17.725Z,91978.47
2022-09-14T21:56:03.640Z,91982.84
2022-09-14T21:58:50.606Z,91978.47
2022-09-14T22:01:33.866Z,91968.63
2022-09-14T22:04:18.926Z,91972.81
2022-09-14T22:07:01.863Z,91973.19
2022-09-14T22:09:44.848Z,91975.19
2022-09-14T22:12:30.990Z,91974.19
2022-09-14T22:15:15.947Z,91974.78
2022-09-14T22:18:02.091Z,91973.19
2022-09-14T22:20:45.360Z,91987.38
2022-09-14T22:23:28.448Z,91984.78
2022-09-14T22:26:12.848Z,91975.19
2022-09-14T22:28:59.318Z,91970.78
2022-09-14T22:31:44.018Z,91969.19
2022-09-14T22:34:27.305Z,91970.00
2022-09-14T22:37:10.632Z,91972.59
2022-09-14T22:39:53.812Z,91966.81
2022-09-14T22:42:37.097Z,91971.59
2022-09-14T22:45:21.789Z,91958.97
2022-09-14T22:48:04.597Z,91953.78
2022-09-14T22:50:50.454Z,91964.19
2022-09-14T22:53:34.812Z,91960.00
2022-09-14T22:56:20.491Z,91966.53
2022-09-14T22:59:05.686Z,91962.94
2022-09-14T23:01:50.046Z,91971.75
2022-09-14T23:04:33.625Z,91976.94
2022-09-14T23:07:16.759Z,91964.97
2022-09-14T23:09:59.923Z,91973.56
2022-09-14T23:12:42.862Z,91965.53
2022-09-14T23:15:25.908Z,91962.94
2022-09-14T23:18:11.075Z,91956.97
2022-09-14T23:20:54.073Z,91968.13
2022-09-14T23:23:39.183Z,91968.38
2022-09-14T23:26:22.723Z,91960.00
2022-09-14T23:29:09.171Z,91957.16
2022-09-14T23:31:52.183Z,91960.56
2022-09-14T23:34:36.680Z,91949.94
2022-09-14T23:37:19.982Z,91950.75
2022-09-14T23:40:03.421Z,91961.94
2022-09-14T23:42:46.439Z,91960.34
2022-09-14T23:45:29.387Z,91960.13
2022-09-14T23:48:13.287Z,91961.72
2022-09-14T23:51:02.964Z,91959.13
2022-09-14T23:53:46.113Z,91953.94
2022-09-14T23:56:29.111Z,91957.53
2022-09-14T23:59:13.949Z,91947.13
